createdAt,value
2023-01-21T00:00:24.182Z,20
2023-01-21T00:01:32.533Z,20
2023-01-21T00:02:40.882Z,20
2023-01-21T00:03:49.555Z,19.299999
2023-01-21T00:04:57.774Z,19.299999
2023-01-21T00:06:06.154Z,19.299999
2023-01-21T00:07:14.666Z,20.1
2023-01-21T00:08:23.011Z,20.1
2023-01-21T00:09:31.362Z,20.1
2023-01-21T00:10:39.910Z,20.5
2023-01-21T00:11:48.246Z,20.5
2023-01-21T00:12:56.613Z,20.5
2023-01-21T00:14:05.170Z,19.200001
2023-01-21T00:15:13.528Z,19.200001
2023-01-21T00:16:21.882Z,19.200001
2023-01-21T00:17:30.430Z,21
2023-01-21T00:18:38.784Z,21
2023-01-21T00:19:47.128Z,21
2023-01-21T00:20:55.683Z,18.5
2023-01-21T00:22:04.055Z,18.5
2023-01-21T00:23:12.377Z,18.5
2023-01-21T00:24:20.915Z,19
2023-01-21T00:25:29.259Z,19
2023-01-21T00:26:37.608Z,19
2023-01-21T00:27:46.164Z,18.6
2023-01-21T00:28:54.511Z,18.6
2023-01-21T00:30:02.858Z,18.6
2023-01-21T00:31:11.529Z,19.6
2023-01-21T00:32:19.784Z,19.6
2023-01-21T00:33:28.131Z,19.6
2023-01-21T00:34:36.697Z,19.799999
2023-01-21T00:35:45.020Z,19.799999
2023-01-21T00:36:55.139Z,19.799999
2023-01-21T00:38:01.960Z,21.4
2023-01-21T00:39:10.270Z,21.4
2023-01-21T00:40:18.960Z,21.4
2023-01-21T00:41:27.183Z,21.700001
2023-01-21T00:42:35.519Z,21.700001
2023-01-21T00:43:43.877Z,21.700001
2023-01-21T00:44:52.424Z,22.5
2023-01-21T00:46:00.802Z,22.5
2023-01-21T00:47:09.109Z,22.5
2023-01-21T00:48:17.672Z,23.1
2023-01-21T00:49:26.013Z,23.1
2023-01-21T00:50:34.356Z,23.1
2023-01-21T00:51:42.929Z,22.9
2023-01-21T00:52:51.259Z,22.9
2023-01-21T00:53:59.624Z,22.9
2023-01-21T00:55:08.160Z,24.6
2023-01-21T00:56:16.497Z,24.6
2023-01-21T00:57:24.856Z,24.6
2023-01-21T00:58:33.408Z,23.9
2023-01-21T00:59:41.751Z,23.9
2023-01-21T01:00:50.110Z,23.9
2023-01-21T01:01:58.677Z,22.9
2023-01-21T01:03:07.023Z,22.9
2023-01-21T01:04:15.366Z,22.9
2023-01-21T01:05:23.928Z,23.700001
2023-01-21T01:06:32.277Z,23.700001
2023-01-21T01:07:40.989Z,23.700001
2023-01-21T01:08:49.536Z,23.799999
2023-01-21T01:09:57.904Z,23.799999
2023-01-21T01:11:06.198Z,23.799999
2023-01-21T01:12:14.793Z,24.799999
2023-01-21T01:13:23.115Z,24.799999
2023-01-21T01:14:31.471Z,24.799999
2023-01-21T01:15:40.042Z,23.1
2023-01-21T01:16:48.378Z,23.1
2023-01-21T01:17:56.721Z,23.1
2023-01-21T01:19:05.285Z,24.1
2023-01-21T01:20:14.102Z,24.1
2023-01-21T01:21:22.346Z,24.1
2023-01-21T01:22:30.915Z,24.200001
2023-01-21T01:23:39.277Z,24.200001
2023-01-21T01:24:47.600Z,24.200001
2023-01-21T01:25:56.193Z,23.299999
2023-01-21T01:27:04.518Z,23.299999
2023-01-21T01:28:12.845Z,23.299999
2023-01-21T01:29:21.384Z,23.5
2023-01-21T01:30:29.773Z,23.5
2023-01-21T01:31:38.115Z,23.5
2023-01-21T01:32:46.641Z,22.799999
2023-01-21T01:33:54.996Z,22.799999
2023-01-21T01:35:03.339Z,22.799999
2023-01-21T01:36:11.904Z,21.9
2023-01-21T01:37:20.270Z,21.9
2023-01-21T01:38:28.599Z,21.9
2023-01-21T01:39:37.174Z,21
2023-01-21T01:40:45.517Z,21
2023-01-21T01:41:53.890Z,21
2023-01-21T01:43:02.430Z,23.4
2023-01-21T01:44:10.784Z,23.4
2023-01-21T01:45:19.104Z,23.4
2023-01-21T01:46:27.854Z,22.299999
2023-01-21T01:47:36.021Z,22.299999
2023-01-21T01:48:44.346Z,22.299999
2023-01-21T01:49:52.908Z,24.200001
2023-01-21T01:51:01.314Z,24.200001
2023-01-21T01:52:09.599Z,24.200001
2023-01-21T01:53:18.157Z,23.200001
2023-01-21T01:54:26.515Z,23.200001
2023-01-21T01:55:34.850Z,23.200001
2023-01-21T01:56:43.416Z,23.4
2023-01-21T01:57:51.790Z,23.4
2023-01-21T01:59:00.118Z,23.4
2023-01-21T02:00:08.653Z,23.9
2023-01-21T02:01:17.100Z,23.9
2023-01-21T02:02:25.345Z,23.9
2023-01-21T02:03:33.888Z,24.799999
2023-01-21T02:04:42.241Z,24.799999
2023-01-21T02:05:50.598Z,24.799999
2023-01-21T02:06:59.162Z,25.299999
2023-01-21T02:08:07.496Z,25.299999
2023-01-21T02:09:15.853Z,25.299999
2023-01-21T02:10:24.408Z,24.9
2023-01-21T02:11:32.745Z,24.9
2023-01-21T02:12:41.087Z,24.9
2023-01-21T02:13:49.651Z,24.200001
2023-01-21T02:14:57.968Z,24.200001
2023-01-21T02:16:06.391Z,24.200001
2023-01-21T02:17:14.903Z,25.9
2023-01-21T02:18:23.251Z,25.9
2023-01-21T02:19:31.595Z,25.9
2023-01-21T02:20:40.140Z,24.4
2023-01-21T02:21:48.495Z,24.4
2023-01-21T02:22:56.857Z,24.4
2023-01-21T02:24:05.401Z,24.4
2023-01-21T02:25:13.733Z,24.4
2023-01-21T02:26:22.087Z,24.4
2023-01-21T02:27:31.432Z,25.200001
2023-01-21T02:28:38.978Z,25.200001
2023-01-21T02:29:47.367Z,25.200001
2023-01-21T02:30:55.925Z,23.799999
2023-01-21T02:32:04.212Z,23.799999
2023-01-21T02:33:12.555Z,23.799999
2023-01-21T02:34:21.095Z,24
2023-01-21T02:35:29.444Z,24
2023-01-21T02:36:37.813Z,24
2023-01-21T02:37:46.345Z,23
2023-01-21T02:38:54.695Z,23
2023-01-21T02:40:03.039Z,23
2023-01-21T02:41:11.597Z,20.9
2023-01-21T02:42:19.940Z,20.9
2023-01-21T02:43:28.285Z,20.9
2023-01-21T02:44:36.833Z,21.299999
2023-01-21T02:45:45.209Z,21.299999
2023-01-21T02:46:53.634Z,21.299999
2023-01-21T02:48:02.084Z,21.5
2023-01-21T02:49:10.436Z,21.5
2023-01-21T02:50:18.993Z,21.5
2023-01-21T02:51:27.315Z,20.299999
2023-01-21T02:52:35.666Z,20.299999
2023-01-21T02:53:44.013Z,20.299999
2023-01-21T02:54:52.573Z,19.6
2023-01-21T02:56:00.914Z,19.6
2023-01-21T02:57:09.267Z,19.6
2023-01-21T02:58:17.823Z,20.9
2023-01-21T02:59:26.172Z,20.9
2023-01-21T03:00:34.592Z,20.9
2023-01-21T03:01:43.144Z,20
2023-01-21T03:02:51.415Z,20
2023-01-21T03:03:59.765Z,20
2023-01-21T03:05:08.320Z,20.1
2023-01-21T03:06:16.662Z,20.1
2023-01-21T03:07:25.019Z,20.1
2023-01-21T03:08:33.580Z,20.200001
2023-01-21T03:09:41.911Z,20.200001
2023-01-21T03:10:50.262Z,20.200001
2023-01-21T03:11:58.868Z,19.5
2023-01-21T03:13:07.179Z,19.5
2023-01-21T03:14:15.518Z,19.5
2023-01-21T03:15:24.085Z,21.9
2023-01-21T03:16:32.461Z,21.9
2023-01-21T03:17:40.796Z,21.9
2023-01-21T03:18:49.310Z,21
2023-01-21T03:19:57.651Z,21
2023-01-21T03:21:06.004Z,21
2023-01-21T03:22:14.551Z,19.5
2023-01-21T03:23:22.899Z,19.5
2023-01-21T03:24:31.230Z,19.5
2023-01-21T03:25:39.792Z,20.5
2023-01-21T03:26:48.139Z,20.5
2023-01-21T03:27:56.495Z,20.5
2023-01-21T03:29:05.047Z,20.5
2023-01-21T03:30:13.380Z,20.5
2023-01-21T03:31:21.748Z,20.5
2023-01-21T03:32:30.293Z,21.5
2023-01-21T03:33:38.673Z,21.5
2023-01-21T03:34:46.993Z,21.5
2023-01-21T03:35:55.525Z,22.9
2023-01-21T03:37:03.887Z,22.9
2023-01-21T03:38:12.220Z,22.9
2023-01-21T03:39:20.772Z,24.200001
2023-01-21T03:40:29.121Z,24.200001
2023-01-21T03:41:37.461Z,24.200001
2023-01-21T03:42:46.024Z,23.200001
2023-01-21T03:43:54.378Z,23.200001
2023-01-21T03:45:02.729Z,23.200001
2023-01-21T03:46:11.298Z,22.5
2023-01-21T03:47:19.644Z,22.5
2023-01-21T03:48:27.991Z,22.5
2023-01-21T03:49:36.553Z,22.299999
2023-01-21T03:50:44.979Z,22.299999
2023-01-21T03:51:53.241Z,22.299999
2023-01-21T03:53:01.789Z,24.200001
2023-01-21T03:54:10.119Z,24.200001
2023-01-21T03:55:18.461Z,24.200001
2023-01-21T03:56:27.005Z,24.299999
2023-01-21T03:57:35.365Z,24.299999
2023-01-21T03:58:43.717Z,24.299999
2023-01-21T03:59:52.264Z,24.1
2023-01-21T04:01:00.701Z,24.1
2023-01-21T04:02:09.030Z,24.1
2023-01-21T04:03:17.519Z,23.799999
2023-01-21T04:04:25.871Z,23.799999
2023-01-21T04:05:34.218Z,23.799999
2023-01-21T04:06:42.744Z,26.200001
2023-01-21T04:07:51.103Z,26.200001
2023-01-21T04:08:59.454Z,26.200001
2023-01-21T04:10:07.996Z,27.200001
2023-01-21T04:11:16.346Z,27.200001
2023-01-21T04:12:24.688Z,27.200001
2023-01-21T04:13:33.230Z,24.5
2023-01-21T04:14:41.573Z,24.5
2023-01-21T04:15:49.923Z,24.5
2023-01-21T04:16:58.491Z,24.4
2023-01-21T04:18:06.835Z,24.4
2023-01-21T04:19:15.187Z,24.4
2023-01-21T04:20:23.742Z,24.5
2023-01-21T04:21:32.324Z,24.5
2023-01-21T04:22:40.417Z,24.5
2023-01-21T04:23:48.962Z,24.299999
2023-01-21T04:24:57.317Z,24.299999
2023-01-21T04:26:05.654Z,24.299999
2023-01-21T04:27:14.209Z,24.200001
2023-01-21T04:28:22.576Z,24.200001
2023-01-21T04:29:30.931Z,24.200001
2023-01-21T04:30:39.479Z,22.299999
2023-01-21T04:31:47.909Z,22.299999
2023-01-21T04:32:56.204Z,22.299999
2023-01-21T04:34:04.745Z,22.5
2023-01-21T04:35:13.081Z,22.5
2023-01-21T04:36:21.439Z,22.5
2023-01-21T04:37:30.022Z,22.799999
2023-01-21T04:38:38.342Z,22.799999
2023-01-21T04:39:46.675Z,22.799999
2023-01-21T04:40:55.215Z,23.9
2023-01-21T04:42:03.575Z,23.9
2023-01-21T04:43:11.935Z,23.9
2023-01-21T04:44:20.474Z,22.700001
2023-01-21T04:45:28.836Z,22.700001
2023-01-21T04:46:37.175Z,22.700001
2023-01-21T04:47:45.734Z,23.299999
2023-01-21T04:48:54.074Z,23.299999
2023-01-21T04:50:02.414Z,23.299999
2023-01-21T04:51:11.062Z,22.700001
2023-01-21T04:52:19.338Z,22.700001
2023-01-21T04:53:27.699Z,22.700001
2023-01-21T04:54:36.238Z,21.299999
2023-01-21T04:55:44.574Z,21.299999
2023-01-21T04:56:52.917Z,21.299999
2023-01-21T04:58:01.493Z,21.299999
2023-01-21T04:59:09.825Z,21.299999
2023-01-21T05:00:18.399Z,21.299999
2023-01-21T05:01:26.746Z,24.299999
2023-01-21T05:02:35.146Z,24.299999
2023-01-21T05:03:43.445Z,24.299999
2023-01-21T05:04:52.005Z,23.200001
2023-01-21T05:06:00.338Z,23.200001
2023-01-21T05:07:08.689Z,23.200001
2023-01-21T05:08:17.247Z,23.9
2023-01-21T05:09:25.607Z,23.9
2023-01-21T05:10:33.916Z,23.9
2023-01-21T05:11:42.471Z,23.299999
2023-01-21T05:12:50.816Z,23.299999
2023-01-21T05:13:59.162Z,23.299999
2023-01-21T05:15:07.725Z,23.5
2023-01-21T05:16:16.083Z,23.5
2023-01-21T05:17:24.431Z,23.5
2023-01-21T05:18:32.987Z,24.6
2023-01-21T05:19:41.331Z,24.6
2023-01-21T05:20:49.692Z,24.6
2023-01-21T05:21:58.234Z,25.1
2023-01-21T05:23:06.583Z,25.1
2023-01-21T05:24:14.923Z,25.1
2023-01-21T05:25:23.493Z,24.5
2023-01-21T05:26:31.814Z,24.5
2023-01-21T05:27:40.164Z,24.5
2023-01-21T05:28:48.725Z,24.9
2023-01-21T05:29:57.147Z,24.9
2023-01-21T05:31:05.506Z,24.9
2023-01-21T05:32:13.962Z,24.200001
2023-01-21T05:33:22.315Z,24.200001
2023-01-21T05:34:30.652Z,24.200001
2023-01-21T05:35:39.198Z,24.5
2023-01-21T05:36:47.548Z,24.5
2023-01-21T05:37:55.897Z,24.5
2023-01-21T05:39:04.457Z,24.5
2023-01-21T05:40:12.780Z,24.5
2023-01-21T05:41:21.144Z,24.5
2023-01-21T05:42:29.702Z,24.4
2023-01-21T05:43:38.051Z,24.4
2023-01-21T05:44:46.401Z,24.4
2023-01-21T05:45:55.003Z,25
2023-01-21T05:47:03.296Z,25
2023-01-21T05:48:11.633Z,25
2023-01-21T05:49:20.190Z,24.200001
2023-01-21T05:50:28.528Z,24.200001
2023-01-21T05:51:36.864Z,24.200001
2023-01-21T05:52:45.421Z,24.1
2023-01-21T05:53:53.760Z,24.1
2023-01-21T05:55:03.038Z,24.1
2023-01-21T05:56:10.669Z,25.200001
2023-01-21T05:57:19.042Z,25.200001
2023-01-21T05:58:27.363Z,25.200001
2023-01-21T05:59:35.917Z,24.9
2023-01-21T06:00:44.257Z,24.9
2023-01-21T06:01:52.606Z,24.9
2023-01-21T06:03:01.177Z,23.5
2023-01-21T06:04:09.508Z,23.5
2023-01-21T06:05:17.856Z,23.5
2023-01-21T06:06:26.403Z,23.5
2023-01-21T06:07:34.757Z,23.5
2023-01-21T06:08:43.106Z,23.5
2023-01-21T06:09:51.649Z,22.200001
2023-01-21T06:11:00.005Z,22.200001
2023-01-21T06:12:08.340Z,22.200001
2023-01-21T06:13:16.915Z,21.6
2023-01-21T06:14:25.228Z,21.6
2023-01-21T06:15:33.666Z,21.6
2023-01-21T06:16:42.124Z,23.299999
2023-01-21T06:17:50.471Z,23.299999
2023-01-21T06:18:58.794Z,23.299999
2023-01-21T06:20:07.357Z,28.1
2023-01-21T06:21:15.703Z,28.1
2023-01-21T06:22:24.055Z,28.1
2023-01-21T06:23:32.602Z,28.5
2023-01-21T06:24:40.950Z,28.5
2023-01-21T06:25:49.297Z,28.5
2023-01-21T06:26:57.853Z,29.299999
2023-01-21T06:28:06.202Z,29.299999
2023-01-21T06:29:14.651Z,29.299999
2023-01-21T06:30:23.086Z,28.5
2023-01-21T06:31:31.638Z,28.5
2023-01-21T06:32:39.809Z,28.5
2023-01-21T06:33:48.340Z,30.5
2023-01-21T06:34:56.680Z,30.5
2023-01-21T06:36:05.027Z,30.5
2023-01-21T06:37:13.594Z,24.299999
2023-01-21T06:38:21.931Z,24.299999
2023-01-21T06:39:30.273Z,24.299999
2023-01-21T06:40:38.830Z,24
2023-01-21T06:41:47.169Z,24
2023-01-21T06:42:55.525Z,24
2023-01-21T06:44:04.088Z,22.299999
2023-01-21T06:45:12.449Z,22.299999
2023-01-21T06:46:20.811Z,22.299999
2023-01-21T06:47:29.302Z,18.5
2023-01-21T06:48:37.756Z,18.5
2023-01-21T06:49:46.098Z,18.5
2023-01-21T06:50:54.666Z,16.5
2023-01-21T06:52:03.002Z,16.5
2023-01-21T06:53:11.346Z,16.5
2023-01-21T06:54:19.900Z,16.4
2023-01-21T06:55:28.248Z,16.4
2023-01-21T06:56:36.579Z,16.4
2023-01-21T06:57:45.136Z,14.2
2023-01-21T06:58:53.489Z,14.2
2023-01-21T07:00:01.929Z,14.2
2023-01-21T07:01:10.424Z,17
2023-01-21T07:02:18.867Z,17
2023-01-21T07:03:27.328Z,17
2023-01-21T07:04:35.936Z,15.3
2023-01-21T07:05:44.273Z,15.3
2023-01-21T07:06:52.690Z,15.3
2023-01-21T07:08:01.265Z,14
2023-01-21T07:09:09.646Z,14
2023-01-21T07:10:18.191Z,14
2023-01-21T07:11:26.596Z,14.7
2023-01-21T07:12:34.999Z,14.7
2023-01-21T07:13:43.414Z,14.7
2023-01-21T07:14:52.040Z,14.5
2023-01-21T07:16:00.492Z,14.5
2023-01-21T07:17:08.835Z,14.5
2023-01-21T07:18:17.473Z,14.9
2023-01-21T07:19:25.850Z,14.9
2023-01-21T07:20:34.185Z,14.9
2023-01-21T07:21:42.777Z,16.6
2023-01-21T07:22:51.147Z,16.6
2023-01-21T07:23:59.530Z,16.6
2023-01-21T07:25:08.119Z,14.7
2023-01-21T07:26:16.466Z,14.7
2023-01-21T07:27:24.862Z,14.7
2023-01-21T07:28:33.465Z,16.6
2023-01-21T07:29:41.870Z,16.6
2023-01-21T07:30:50.302Z,16.6
2023-01-21T07:31:58.882Z,13.3
2023-01-21T07:33:07.279Z,13.3
2023-01-21T07:34:15.657Z,13.3
2023-01-21T07:35:24.303Z,17.4
2023-01-21T07:36:32.640Z,17.4
2023-01-21T07:37:41.021Z,17.4
2023-01-21T07:38:49.578Z,44.700001
2023-01-21T07:39:57.938Z,44.700001
2023-01-21T07:41:06.285Z,44.700001
2023-01-21T07:42:14.857Z,17.9
2023-01-21T07:43:23.234Z,17.9
2023-01-21T07:44:31.569Z,17.9
2023-01-21T07:45:40.261Z,13.8
2023-01-21T07:46:48.671Z,13.8
2023-01-21T07:47:56.997Z,13.8
2023-01-21T07:49:05.570Z,15.5
2023-01-21T07:50:13.912Z,15.5
2023-01-21T07:51:22.370Z,15.5
2023-01-21T07:52:30.824Z,14.6
2023-01-21T07:53:39.247Z,14.6
2023-01-21T07:54:47.869Z,14.6
2023-01-21T07:55:56.438Z,24.6
2023-01-21T07:57:04.822Z,24.6
2023-01-21T07:58:13.204Z,24.6
2023-01-21T07:59:21.855Z,26.4
2023-01-21T08:00:30.543Z,26.4
2023-01-21T08:01:39.048Z,26.4
2023-01-21T08:02:47.671Z,18
2023-01-21T08:03:55.983Z,18
2023-01-21T08:05:04.355Z,18
2023-01-21T08:06:12.887Z,17.700001
2023-01-21T08:07:21.238Z,17.700001
2023-01-21T08:08:29.599Z,17.700001
2023-01-21T08:09:38.143Z,15.7
2023-01-21T08:10:46.479Z,15.7
2023-01-21T08:11:54.838Z,15.7
2023-01-21T08:13:03.395Z,16.4
2023-01-21T08:14:11.736Z,16.4
2023-01-21T08:15:20.096Z,16.4
2023-01-21T08:16:28.754Z,19.299999
2023-01-21T08:17:37.036Z,19.299999
2023-01-21T08:18:45.400Z,19.299999
2023-01-21T08:19:53.956Z,21.4
2023-01-21T08:21:02.362Z,21.4
2023-01-21T08:22:10.700Z,21.4
2023-01-21T08:23:19.228Z,15.6
2023-01-21T08:24:27.580Z,15.6
2023-01-21T08:25:35.904Z,15.6
2023-01-21T08:26:44.455Z,11.6
2023-01-21T08:27:52.811Z,11.6
2023-01-21T08:29:01.167Z,11.6
2023-01-21T08:30:09.717Z,23.299999
2023-01-21T08:31:18.126Z,23.299999
2023-01-21T08:32:26.414Z,23.299999
2023-01-21T08:33:34.982Z,14.1
2023-01-21T08:34:43.350Z,14.1
2023-01-21T08:35:51.690Z,14.1
2023-01-21T08:37:00.289Z,14.3
2023-01-21T08:38:08.619Z,14.3
2023-01-21T08:39:16.985Z,14.3
2023-01-21T08:40:25.550Z,14.3
2023-01-21T08:41:33.933Z,14.3
2023-01-21T08:42:42.279Z,14.3
2023-01-21T08:43:50.832Z,15.3
2023-01-21T08:44:59.189Z,15.3
2023-01-21T08:46:07.578Z,15.3
2023-01-21T08:47:16.118Z,10.9
2023-01-21T08:48:24.564Z,10.9
2023-01-21T08:49:32.878Z,10.9
2023-01-21T08:50:41.446Z,41.799999
2023-01-21T08:51:49.868Z,41.799999
2023-01-21T08:52:58.297Z,41.799999
2023-01-21T08:54:06.903Z,21.200001
2023-01-21T08:55:15.545Z,21.200001
2023-01-21T08:56:23.632Z,21.200001
2023-01-21T08:57:32.208Z,10.5
2023-01-21T08:58:40.579Z,10.5
2023-01-21T08:59:48.987Z,10.5
2023-01-21T09:00:57.627Z,9.7
2023-01-21T09:02:06.101Z,9.7
2023-01-21T09:03:14.405Z,9.7
2023-01-21T09:04:22.958Z,8.8
2023-01-21T09:05:31.334Z,8.8
2023-01-21T09:06:39.688Z,8.8
2023-01-21T09:07:48.294Z,14.3
2023-01-21T09:08:56.671Z,14.3
2023-01-21T09:10:04.994Z,14.3
2023-01-21T09:11:13.583Z,21.6
2023-01-21T09:12:22.917Z,21.6
2023-01-21T09:13:32.072Z,21.6
2023-01-21T09:14:40.663Z,8.2
2023-01-21T09:15:48.958Z,8.2
2023-01-21T09:16:57.358Z,8.2
2023-01-21T09:18:05.923Z,11.2
2023-01-21T09:19:14.277Z,11.2
2023-01-21T09:20:22.717Z,11.2
2023-01-21T09:21:31.257Z,27.700001
2023-01-21T09:22:39.612Z,27.700001
2023-01-21T09:23:47.959Z,27.700001
2023-01-21T09:24:56.559Z,15.3
2023-01-21T09:26:04.924Z,15.3
2023-01-21T09:27:13.270Z,15.3
2023-01-21T09:28:21.838Z,12.7
2023-01-21T09:29:30.206Z,12.7
2023-01-21T09:30:38.604Z,12.7
2023-01-21T09:31:47.113Z,9.7
2023-01-21T09:32:55.470Z,9.7
2023-01-21T09:34:03.855Z,9.7
2023-01-21T09:35:13.029Z,8.7
2023-01-21T09:36:21.379Z,8.7
2023-01-21T09:37:29.741Z,8.7
2023-01-21T09:38:38.302Z,8.8
2023-01-21T09:39:49.023Z,8.8
2023-01-21T09:40:55.003Z,8.8
2023-01-21T09:42:03.539Z,9.4
2023-01-21T09:43:11.872Z,9.4
2023-01-21T09:44:20.226Z,9.4
2023-01-21T09:45:28.813Z,8.8
2023-01-21T09:46:37.126Z,8.8
2023-01-21T09:47:45.512Z,8.8
2023-01-21T09:48:54.058Z,10.7
2023-01-21T09:50:02.421Z,10.7
2023-01-21T09:51:10.827Z,10.7
2023-01-21T09:52:19.310Z,9.5
2023-01-21T09:53:27.642Z,9.5
2023-01-21T09:54:35.994Z,9.5
2023-01-21T09:55:44.547Z,8.7
2023-01-21T09:56:52.915Z,8.7
2023-01-21T09:58:01.247Z,8.7
2023-01-21T09:59:09.822Z,9.9
2023-01-21T10:00:18.215Z,9.9
2023-01-21T10:01:26.539Z,9.9
2023-01-21T10:02:35.082Z,10.5
2023-01-21T10:03:43.448Z,10.5
2023-01-21T10:04:51.784Z,10.5
2023-01-21T10:06:00.336Z,9.9
2023-01-21T10:07:08.720Z,9.9
2023-01-21T10:08:17.137Z,9.9
2023-01-21T10:09:25.688Z,12.9
2023-01-21T10:10:34.044Z,12.9
2023-01-21T10:11:44.034Z,12.9
2023-01-21T10:12:50.997Z,10.7
2023-01-21T10:13:59.394Z,10.7
2023-01-21T10:15:07.716Z,10.7
2023-01-21T10:16:16.380Z,10.7
2023-01-21T10:17:24.707Z,10.7
2023-01-21T10:18:33.121Z,10.7
2023-01-21T10:19:41.685Z,12
2023-01-21T10:20:50.149Z,12
2023-01-21T10:21:58.511Z,12
2023-01-21T10:23:07.126Z,11.2
2023-01-21T10:24:15.515Z,11.2
2023-01-21T10:25:23.871Z,11.2
2023-01-21T10:26:32.438Z,11.5
2023-01-21T10:27:40.856Z,11.5
2023-01-21T10:28:49.228Z,11.5
2023-01-21T10:29:57.781Z,13
2023-01-21T10:31:06.153Z,13
2023-01-21T10:32:14.517Z,13
2023-01-21T10:33:23.079Z,12.9
2023-01-21T10:34:31.432Z,12.9
2023-01-21T10:35:39.868Z,12.9
2023-01-21T10:36:48.443Z,10.6
2023-01-21T10:37:56.826Z,10.6
2023-01-21T10:39:05.189Z,10.6
2023-01-21T10:40:13.777Z,12.4
2023-01-21T10:41:22.133Z,12.4
2023-01-21T10:42:30.528Z,12.4
2023-01-21T10:43:39.869Z,10.3
2023-01-21T10:44:48.231Z,10.3
2023-01-21T10:45:56.699Z,10.3
2023-01-21T10:47:05.214Z,12.1
2023-01-21T10:48:13.716Z,12.1
2023-01-21T10:49:22.114Z,12.1
2023-01-21T10:50:30.705Z,11.7
2023-01-21T10:51:39.030Z,11.7
2023-01-21T10:52:47.414Z,11.7
2023-01-21T10:53:55.983Z,13.2
2023-01-21T10:55:04.304Z,13.2
2023-01-21T10:56:12.695Z,13.2
2023-01-21T10:57:21.258Z,10.3
2023-01-21T10:58:29.615Z,10.3
2023-01-21T10:59:37.977Z,10.3
2023-01-21T11:00:46.554Z,10
2023-01-21T11:01:54.916Z,10
2023-01-21T11:03:03.256Z,10
2023-01-21T11:04:11.856Z,11
2023-01-21T11:05:20.197Z,11
2023-01-21T11:06:28.546Z,11
2023-01-21T11:07:37.129Z,12.6
2023-01-21T11:08:45.551Z,12.6
2023-01-21T11:09:53.831Z,12.6
2023-01-21T11:11:02.468Z,15
2023-01-21T11:12:10.894Z,15
2023-01-21T11:13:19.315Z,15
2023-01-21T11:14:27.958Z,21
2023-01-21T11:15:36.411Z,21
2023-01-21T11:16:44.817Z,21
2023-01-21T11:17:53.389Z,19.6
2023-01-21T11:19:01.781Z,19.6
2023-01-21T11:20:10.180Z,19.6
2023-01-21T11:21:18.736Z,23.299999
2023-01-21T11:22:27.109Z,23.299999
2023-01-21T11:23:35.607Z,23.299999
2023-01-21T11:24:44.658Z,14
2023-01-21T11:25:53.164Z,14
2023-01-21T11:27:01.882Z,14
2023-01-21T11:28:10.624Z,12.3
2023-01-21T11:29:19.025Z,12.3
2023-01-21T11:30:44.433Z,12.3
2023-01-21T11:31:36.048Z,12.6
2023-01-21T11:32:44.395Z,12.6
2023-01-21T11:33:52.747Z,12.6
2023-01-21T11:35:01.330Z,13.9
2023-01-21T11:36:09.685Z,13.9
2023-01-21T11:37:18.039Z,13.9
2023-01-21T11:38:26.640Z,12.2
2023-01-21T11:39:34.997Z,12.2
2023-01-21T11:40:43.356Z,12.2
2023-01-21T11:41:51.945Z,11.6
2023-01-21T11:43:00.323Z,11.6
2023-01-21T11:44:08.710Z,11.6
2023-01-21T11:45:17.499Z,13.3
2023-01-21T11:46:25.726Z,13.3
2023-01-21T11:47:36.052Z,13.3
2023-01-21T11:48:42.716Z,11.4
2023-01-21T11:49:51.079Z,11.4
2023-01-21T11:50:59.453Z,11.4
2023-01-21T11:52:08.032Z,11.5
2023-01-21T11:53:16.427Z,11.5
2023-01-21T11:54:24.794Z,11.5
2023-01-21T11:55:33.363Z,12.1
2023-01-21T11:56:41.712Z,12.1
2023-01-21T11:57:50.113Z,12.1
2023-01-21T11:58:58.679Z,12.8
2023-01-21T12:00:07.033Z,12.8
2023-01-21T12:01:15.386Z,12.8
2023-01-21T12:02:24.039Z,13.1
2023-01-21T12:03:32.362Z,13.1
2023-01-21T12:04:40.724Z,13.1
2023-01-21T12:05:49.272Z,13.9
2023-01-21T12:06:57.647Z,13.9
2023-01-21T12:08:06.017Z,13.9
2023-01-21T12:09:14.624Z,12.6
2023-01-21T12:10:23.000Z,12.6
2023-01-21T12:11:31.355Z,12.6
2023-01-21T12:12:40.016Z,12.3
2023-01-21T12:13:48.399Z,12.3
2023-01-21T12:14:56.740Z,12.3
2023-01-21T12:16:05.482Z,11.2
2023-01-21T12:17:13.796Z,11.2
2023-01-21T12:18:22.222Z,11.2
2023-01-21T12:19:30.863Z,15.4
2023-01-21T12:20:39.278Z,15.4
2023-01-21T12:21:47.680Z,15.4
2023-01-21T12:22:56.387Z,12.3
2023-01-21T12:24:04.788Z,12.3
2023-01-21T12:25:13.243Z,12.3
2023-01-21T12:26:21.838Z,12.4
2023-01-21T12:27:30.261Z,12.4
2023-01-21T12:28:38.675Z,12.4
2023-01-21T12:29:47.323Z,14
2023-01-21T12:30:55.823Z,14
2023-01-21T12:32:04.143Z,14
2023-01-21T12:33:12.704Z,14.1
2023-01-21T12:34:21.118Z,14.1
2023-01-21T12:35:29.514Z,14.1
2023-01-21T12:36:38.102Z,16.299999
2023-01-21T12:37:46.452Z,16.299999
2023-01-21T12:38:54.840Z,16.299999
2023-01-21T12:40:03.442Z,17.4
2023-01-21T12:41:11.812Z,17.4
2023-01-21T12:42:20.216Z,17.4
2023-01-21T12:43:28.791Z,16.6
2023-01-21T12:44:37.208Z,16.6
2023-01-21T12:45:45.614Z,16.6
2023-01-21T12:46:54.211Z,13.5
2023-01-21T12:48:02.579Z,13.5
2023-01-21T12:49:10.932Z,13.5
2023-01-21T12:50:19.504Z,13.7
2023-01-21T12:51:27.902Z,13.7
2023-01-21T12:52:36.272Z,13.7
2023-01-21T12:53:44.840Z,13.2
2023-01-21T12:54:53.191Z,13.2
2023-01-21T12:56:01.605Z,13.2
2023-01-21T12:57:10.226Z,15
2023-01-21T12:58:18.688Z,15
2023-01-21T12:59:27.086Z,15
2023-01-21T13:00:35.717Z,14.1
2023-01-21T13:01:44.074Z,14.1
2023-01-21T13:02:52.399Z,14.1
2023-01-21T13:04:01.004Z,14.6
2023-01-21T13:05:09.370Z,14.6
2023-01-21T13:06:17.708Z,14.6
2023-01-21T13:07:26.305Z,14.4
2023-01-21T13:08:34.742Z,14.4
2023-01-21T13:09:43.097Z,14.4
2023-01-21T13:10:51.661Z,14.2
2023-01-21T13:12:00.055Z,14.2
2023-01-21T13:13:08.430Z,14.2
2023-01-21T13:14:16.993Z,14
2023-01-21T13:15:25.372Z,14
2023-01-21T13:16:33.800Z,14
2023-01-21T13:17:42.364Z,13.5
2023-01-21T13:18:50.750Z,13.5
2023-01-21T13:19:59.110Z,13.5
2023-01-21T13:21:07.714Z,13.7
2023-01-21T13:22:16.133Z,13.7
2023-01-21T13:23:24.526Z,13.7
2023-01-21T13:24:33.210Z,13.8
2023-01-21T13:25:41.594Z,13.8
2023-01-21T13:26:50.070Z,13.8
2023-01-21T13:27:58.710Z,14.4
2023-01-21T13:29:07.149Z,14.4
2023-01-21T13:30:15.691Z,14.4
2023-01-21T13:31:24.300Z,13.9
2023-01-21T13:32:32.766Z,13.9
2023-01-21T13:33:41.222Z,13.9
2023-01-21T13:34:49.855Z,14.9
2023-01-21T13:35:58.266Z,14.9
2023-01-21T13:37:06.664Z,14.9
2023-01-21T13:38:15.239Z,14.9
2023-01-21T13:39:23.637Z,14.9
2023-01-21T13:40:32.113Z,14.9
2023-01-21T13:41:40.707Z,19.5
2023-01-21T13:42:49.125Z,19.5
2023-01-21T13:43:57.521Z,19.5
2023-01-21T13:45:06.118Z,18.4
2023-01-21T13:46:14.530Z,18.4
2023-01-21T13:47:22.910Z,18.4
2023-01-21T13:48:31.573Z,16.799999
2023-01-21T13:49:39.954Z,16.799999
2023-01-21T13:50:49.050Z,16.799999
2023-01-21T13:51:57.675Z,17.9
2023-01-21T13:53:06.350Z,17.9
2023-01-21T13:54:14.842Z,17.9
2023-01-21T13:55:23.654Z,16.9
2023-01-21T13:56:33.000Z,16.9
2023-01-21T13:57:46.852Z,16.9
2023-01-21T13:58:56.639Z,17.4
2023-01-21T14:00:05.210Z,17.4
2023-01-21T14:01:14.625Z,17.4
2023-01-21T14:02:23.168Z,17
2023-01-21T14:03:31.486Z,17
2023-01-21T14:04:40.019Z,17
2023-01-21T14:05:48.574Z,16.200001
2023-01-21T14:06:56.916Z,16.200001
2023-01-21T14:08:08.851Z,16.200001
2023-01-21T14:09:19.227Z,16.200001
2023-01-21T14:10:26.247Z,16.200001
2023-01-21T14:11:34.656Z,16.200001
2023-01-21T14:12:43.321Z,16.1
2023-01-21T14:13:51.735Z,16.1
2023-01-21T14:15:00.133Z,16.1
2023-01-21T14:16:09.985Z,16.6
2023-01-21T14:17:18.572Z,16.6
2023-01-21T14:18:26.999Z,16.6
2023-01-21T14:19:35.632Z,15.2
2023-01-21T14:20:44.043Z,15.2
2023-01-21T14:21:52.424Z,15.2
2023-01-21T14:23:01.005Z,29.200001
2023-01-21T14:24:09.397Z,29.200001
2023-01-21T14:25:17.773Z,29.200001
2023-01-21T14:26:26.367Z,21.299999
2023-01-21T14:27:34.766Z,21.299999
2023-01-21T14:28:43.188Z,21.299999
2023-01-21T14:29:51.847Z,24
2023-01-21T14:31:00.176Z,24
2023-01-21T15:03:52.931Z,0
2023-01-21T15:05:01.244Z,0
2023-01-21T15:06:09.589Z,0
2023-01-21T15:07:18.150Z,20.4
2023-01-21T15:08:26.517Z,20.4
2023-01-21T15:09:34.873Z,20.4
2023-01-21T15:10:43.446Z,15.3
2023-01-21T15:11:51.846Z,15.3
2023-01-21T15:13:00.248Z,15.3
2023-01-21T15:14:08.807Z,15.3